createdAt,value
2022-10-22T00:01:07.859Z,18.30
2022-10-22T00:03:27.236Z,18.30
2022-10-22T00:05:28.968Z,18.40
2022-10-22T00:07:38.559Z,18.30
2022-10-22T00:09:57.328Z,18.30
2022-10-22T00:12:00.178Z,18.40
2022-10-22T00:14:11.947Z,18.30
2022-10-22T00:16:15.265Z,18.30
2022-10-22T00:18:17.298Z,18.30
2022-10-22T00:23:01.599Z,18.30
2022-10-22T00:25:03.839Z,18.30
2022-10-22T00:27:10.618Z,18.30
2022-10-22T00:29:22.851Z,18.30
2022-10-22T00:31:25.340Z,18.40
2022-10-22T00:33:29.263Z,18.30
2022-10-22T00:35:31.268Z,18.50
2022-10-22T00:37:39.498Z,18.40
2022-10-22T00:39:44.501Z,18.30
2022-10-22T00:41:48.478Z,18.40
2022-10-22T00:44:05.702Z,18.30
2022-10-22T00:46:07.983Z,18.30
2022-10-22T00:48:20.768Z,18.30
2022-10-22T00:50:25.561Z,18.30
2022-10-22T00:52:35.027Z,18.20
2022-10-22T00:55:09.958Z,18.20
2022-10-22T00:57:21.773Z,18.10
2022-10-22T00:59:24.299Z,18.10
2022-10-22T01:01:31.291Z,18.00
2022-10-22T01:03:33.126Z,18.00
2022-10-22T01:05:50.329Z,18.00
2022-10-22T01:07:53.737Z,18.00
2022-10-22T01:10:19.104Z,18.00
2022-10-22T01:12:33.035Z,17.90
2022-10-22T01:15:00.668Z,17.90
2022-10-22T01:17:10.402Z,17.90
2022-10-22T01:19:32.513Z,17.90
2022-10-22T01:21:50.752Z,17.80
2022-10-22T01:24:04.458Z,17.80
2022-10-22T01:26:15.623Z,17.80
2022-10-22T01:29:00.296Z,17.80
2022-10-22T01:31:03.305Z,17.70
2022-10-22T01:33:08.866Z,17.70
2022-10-22T01:35:15.042Z,17.70
2022-10-22T01:37:20.421Z,17.70
2022-10-22T01:41:48.610Z,17.60
2022-10-22T01:43:50.557Z,17.60
2022-10-22T01:46:05.001Z,17.60
2022-10-22T01:48:30.116Z,17.60
2022-10-22T01:51:10.586Z,17.60
2022-10-22T01:53:42.987Z,17.50
2022-10-22T01:56:18.031Z,17.50
2022-10-22T01:59:05.006Z,17.50
2022-10-22T02:01:25.430Z,17.40
2022-10-22T02:03:43.906Z,17.40
2022-10-22T02:06:14.826Z,17.40
2022-10-22T02:08:27.068Z,17.40
2022-10-22T02:10:30.533Z,17.30
2022-10-22T02:15:22.865Z,17.20
2022-10-22T02:17:35.049Z,17.20
2022-10-22T02:19:53.510Z,17.20
2022-10-22T02:21:55.562Z,17.20
2022-10-22T02:23:57.438Z,17.10
2022-10-22T02:26:11.816Z,17.10
2022-10-22T02:28:16.770Z,17.20
2022-10-22T02:30:22.327Z,17.10
2022-10-22T02:32:30.432Z,17.10
2022-10-22T02:34:33.265Z,17.10
2022-10-22T02:36:36.024Z,17.10
2022-10-22T02:38:40.235Z,17.10
2022-10-22T02:40:42.310Z,17.10
2022-10-22T02:42:46.423Z,17.00
2022-10-22T02:44:48.391Z,17.00
2022-10-22T02:46:50.888Z,17.00
2022-10-22T02:48:52.645Z,17.00
2022-10-22T02:50:54.576Z,17.00
2022-10-22T02:52:56.732Z,17.00
2022-10-22T02:54:58.562Z,17.00
2022-10-22T02:57:00.261Z,17.00
2022-10-22T02:59:02.030Z,16.90
2022-10-22T03:01:03.885Z,16.90
2022-10-22T03:03:05.810Z,16.90
2022-10-22T03:05:08.113Z,16.90
2022-10-22T03:07:09.875Z,16.90
2022-10-22T03:09:21.304Z,16.90
2022-10-22T03:11:48.396Z,16.90
2022-10-22T03:14:19.596Z,16.80
2022-10-22T03:16:34.376Z,16.80
2022-10-22T03:18:36.952Z,16.80
2022-10-22T03:21:06.566Z,16.80
2022-10-22T03:23:08.304Z,16.90
2022-10-22T03:25:18.900Z,16.80
2022-10-22T03:27:22.731Z,16.80
2022-10-22T03:29:38.340Z,16.70
2022-10-22T03:31:56.952Z,16.70
2022-10-22T03:34:28.747Z,16.70
2022-10-22T03:36:48.577Z,16.70
2022-10-22T03:39:33.378Z,16.60
2022-10-22T03:41:53.052Z,16.60
2022-10-22T03:43:55.931Z,16.60
2022-10-22T03:46:01.218Z,16.60
2022-10-22T03:48:07.306Z,16.60
2022-10-22T03:50:30.873Z,16.60
2022-10-22T03:53:13.868Z,16.70
2022-10-22T03:55:34.720Z,16.60
2022-10-22T03:58:31.920Z,16.60
2022-10-22T04:00:35.336Z,16.60
2022-10-22T04:02:37.114Z,16.60
2022-10-22T04:04:38.929Z,16.50
2022-10-22T04:06:50.222Z,16.50
2022-10-22T04:08:55.576Z,16.50
2022-10-22T04:11:24.032Z,16.40
2022-10-22T04:13:27.353Z,16.50
2022-10-22T04:15:29.195Z,16.50
2022-10-22T04:17:57.319Z,16.40
2022-10-22T04:20:13.964Z,16.50
2022-10-22T04:22:15.759Z,16.40
2022-10-22T04:24:17.798Z,16.40
2022-10-22T04:26:29.222Z,16.40
2022-10-22T04:28:45.480Z,16.50
2022-10-22T04:30:50.242Z,16.30
2022-10-22T04:32:52.161Z,16.30
2022-10-22T04:35:08.533Z,16.20
2022-10-22T04:37:11.550Z,16.30
2022-10-22T04:39:30.681Z,16.20
2022-10-22T04:41:47.114Z,16.20
2022-10-22T04:43:51.256Z,16.20
2022-10-22T04:45:53.620Z,16.20
2022-10-22T04:50:27.015Z,16.20
2022-10-22T04:52:30.930Z,16.20
2022-10-22T04:54:33.254Z,16.10
2022-10-22T04:57:06.653Z,16.10
2022-10-22T04:59:10.859Z,16.20
2022-10-22T05:01:54.185Z,16.20
2022-10-22T05:03:59.127Z,16.10
2022-10-22T05:06:10.864Z,16.20
2022-10-22T05:10:40.104Z,16.10
2022-10-22T05:15:43.900Z,16.10
2022-10-22T05:17:45.964Z,16.10
2022-10-22T05:19:51.876Z,16.10
2022-10-22T05:21:58.836Z,16.10
2022-10-22T05:24:06.651Z,16.10
2022-10-22T05:26:24.998Z,16.10
2022-10-22T05:28:37.117Z,16.00
2022-10-22T05:30:40.351Z,16.00
2022-10-22T05:32:42.074Z,16.00
2022-10-22T05:34:46.983Z,16.00
2022-10-22T05:36:52.941Z,16.00
2022-10-22T05:38:55.002Z,16.00
2022-10-22T05:41:21.850Z,15.90
2022-10-22T05:43:32.001Z,15.90
2022-10-22T05:45:44.535Z,15.90
2022-10-22T05:48:11.313Z,15.90
2022-10-22T05:50:20.434Z,15.90
2022-10-22T05:52:29.289Z,15.90
2022-10-22T05:54:31.969Z,15.90
2022-10-22T05:56:34.889Z,15.80
2022-10-22T05:59:08.113Z,15.80
2022-10-22T06:03:35.736Z,15.80
2022-10-22T06:05:42.538Z,15.80
2022-10-22T06:07:49.088Z,15.80
2022-10-22T06:09:51.101Z,15.80
2022-10-22T06:11:53.383Z,15.80
2022-10-22T06:14:33.091Z,15.80
2022-10-22T06:16:51.979Z,15.80
2022-10-22T06:19:11.189Z,15.80
2022-10-22T06:21:39.313Z,15.80
2022-10-22T06:23:42.282Z,15.80
2022-10-22T06:26:04.627Z,15.80
2022-10-22T06:28:19.317Z,15.80
2022-10-22T06:30:45.835Z,15.70
2022-10-22T06:32:57.292Z,15.70
2022-10-22T06:35:04.586Z,15.70
2022-10-22T06:37:18.053Z,15.60
2022-10-22T06:39:41.755Z,15.70
2022-10-22T06:41:58.773Z,15.60
2022-10-22T06:46:58.433Z,15.70
2022-10-22T06:49:30.114Z,15.70
2022-10-22T06:51:33.975Z,15.70
2022-10-22T06:53:37.470Z,15.60
2022-10-22T06:56:19.974Z,15.70
2022-10-22T06:58:28.384Z,15.70
2022-10-22T07:00:37.027Z,15.70
2022-10-22T07:02:40.077Z,15.60
2022-10-22T07:05:07.663Z,15.60
2022-10-22T07:07:07.621Z,15.70
2022-10-22T07:09:16.168Z,15.70
2022-10-22T07:11:25.162Z,15.70
2022-10-22T07:13:30.858Z,15.70
2022-10-22T07:15:38.789Z,15.70
2022-10-22T07:17:54.357Z,15.70
2022-10-22T07:19:56.025Z,15.70
2022-10-22T07:21:57.973Z,15.80
2022-10-22T07:24:07.525Z,15.80
2022-10-22T07:26:11.932Z,15.80
2022-10-22T07:28:14.069Z,15.80
2022-10-22T07:30:15.800Z,15.90
2022-10-22T07:32:23.658Z,15.90
2022-10-22T07:34:25.714Z,15.90
2022-10-22T07:36:27.589Z,16.00
2022-10-22T07:38:31.459Z,15.90
2022-10-22T07:40:34.224Z,16.00
2022-10-22T07:42:40.372Z,16.00
2022-10-22T07:44:42.152Z,16.00
2022-10-22T07:46:48.036Z,16.00
2022-10-22T07:48:53.043Z,16.00
2022-10-22T07:50:59.162Z,16.00
2022-10-22T07:53:05.077Z,16.00
2022-10-22T07:55:11.178Z,16.00
2022-10-22T07:57:17.911Z,16.00
2022-10-22T07:59:25.514Z,16.10
2022-10-22T08:01:32.195Z,16.10
2022-10-22T08:03:34.522Z,16.10
2022-10-22T08:05:36.204Z,16.10
2022-10-22T08:07:38.484Z,16.10
2022-10-22T08:09:40.223Z,16.10
2022-10-22T08:11:42.002Z,16.20
2022-10-22T08:13:45.524Z,16.10
2022-10-22T08:15:48.364Z,16.20
2022-10-22T08:17:52.114Z,16.20
2022-10-22T08:19:53.906Z,16.20
2022-10-22T08:21:55.836Z,16.20
2022-10-22T08:23:57.820Z,16.20
2022-10-22T08:25:59.735Z,16.20
2022-10-22T08:28:01.739Z,16.20
2022-10-22T08:30:04.797Z,16.20
2022-10-22T08:32:06.722Z,16.20
2022-10-22T08:34:08.449Z,16.30
2022-10-22T08:36:13.184Z,16.30
2022-10-22T08:38:15.140Z,16.30
2022-10-22T08:40:33.796Z,16.40
2022-10-22T08:43:13.629Z,16.30
2022-10-22T08:45:25.489Z,16.30
2022-10-22T08:47:37.380Z,16.30
2022-10-22T08:49:42.419Z,16.30
2022-10-22T08:51:44.293Z,16.30
2022-10-22T08:54:04.520Z,16.30
2022-10-22T08:56:06.890Z,16.40
2022-10-22T08:58:33.444Z,16.40
2022-10-22T09:00:47.750Z,16.50
2022-10-22T09:03:16.885Z,16.50
2022-10-22T09:05:24.692Z,16.60
2022-10-22T09:07:26.879Z,16.60
2022-10-22T09:09:35.892Z,16.60
2022-10-22T09:11:45.072Z,16.60
2022-10-22T09:13:51.294Z,16.70
2022-10-22T09:15:58.459Z,16.70
2022-10-22T09:18:12.855Z,16.70
2022-10-22T09:20:26.726Z,16.90
2022-10-22T09:22:46.706Z,16.80
2022-10-22T09:24:55.862Z,16.80
2022-10-22T09:27:11.812Z,16.80
2022-10-22T09:29:42.972Z,16.90
2022-10-22T09:31:45.017Z,16.90
2022-10-22T09:33:50.862Z,16.90
2022-10-22T09:35:55.835Z,16.90
2022-10-22T09:37:57.739Z,16.90
2022-10-22T09:40:04.995Z,16.90
2022-10-22T09:42:08.047Z,17.00
2022-10-22T09:44:19.189Z,17.00
2022-10-22T09:46:24.380Z,17.10
2022-10-22T09:49:31.654Z,17.10
2022-10-22T09:51:56.190Z,17.20
2022-10-22T09:54:02.618Z,17.30
2022-10-22T09:56:23.258Z,17.40
2022-10-22T09:58:25.751Z,17.40
2022-10-22T10:00:29.511Z,17.50
2022-10-22T10:02:38.309Z,17.60
2022-10-22T10:04:46.162Z,17.60
2022-10-22T10:07:07.955Z,17.70
2022-10-22T10:09:19.485Z,17.70
2022-10-22T10:11:31.584Z,17.80
2022-10-22T10:13:57.455Z,17.80
2022-10-22T10:16:24.406Z,17.80
2022-10-22T10:18:29.102Z,17.80
2022-10-22T10:20:42.514Z,17.70
2022-10-22T10:23:03.701Z,17.70
2022-10-22T10:25:28.790Z,17.70
2022-10-22T10:27:39.405Z,17.70
2022-10-22T10:30:05.372Z,17.70
2022-10-22T10:32:34.272Z,17.70
2022-10-22T10:34:46.866Z,17.70
2022-10-22T10:37:29.454Z,17.70
2022-10-22T10:40:03.450Z,17.80
2022-10-22T10:42:20.315Z,17.90
2022-10-22T10:44:37.027Z,18.00
2022-10-22T10:46:57.406Z,18.10
2022-10-22T10:49:09.822Z,18.10
2022-10-22T10:51:45.299Z,18.20
2022-10-22T10:54:24.074Z,18.30
2022-10-22T10:56:44.394Z,18.40
2022-10-22T10:59:04.827Z,18.40
2022-10-22T11:01:28.845Z,18.50
2022-10-22T11:03:41.071Z,18.60
2022-10-22T11:06:11.083Z,18.50
2022-10-22T11:08:20.911Z,18.60
2022-10-22T11:10:30.244Z,18.60
2022-10-22T11:12:38.917Z,18.70
2022-10-22T11:15:01.099Z,18.70
2022-10-22T11:17:15.111Z,18.80
2022-10-22T11:19:22.855Z,18.90
2022-10-22T11:22:05.286Z,19.00
2022-10-22T11:24:30.502Z,19.10
2022-10-22T11:26:47.220Z,19.20
2022-10-22T11:28:53.757Z,19.20
2022-10-22T11:31:16.207Z,19.30
2022-10-22T11:33:24.605Z,19.40
2022-10-22T11:35:30.576Z,19.50
2022-10-22T11:37:35.481Z,19.50
2022-10-22T11:39:47.411Z,19.50
2022-10-22T11:41:49.092Z,19.50
2022-10-22T11:44:16.465Z,19.50
2022-10-22T11:46:18.271Z,19.50
2022-10-22T11:48:27.106Z,19.50
2022-10-22T11:50:45.053Z,19.50
2022-10-22T11:52:50.453Z,19.60
2022-10-22T11:54:57.932Z,19.70
2022-10-22T11:57:26.693Z,19.80
2022-10-22T11:59:50.390Z,19.90
2022-10-22T12:01:55.773Z,20.00
2022-10-22T12:04:17.228Z,20.10
2022-10-22T12:06:27.574Z,20.20
2022-10-22T12:08:30.550Z,20.30
2022-10-22T12:10:58.559Z,20.30
2022-10-22T12:13:13.412Z,20.40
2022-10-22T12:15:25.722Z,20.50
2022-10-22T12:17:29.554Z,20.50
2022-10-22T12:19:51.259Z,20.50
2022-10-22T12:22:19.486Z,20.60
2022-10-22T12:24:24.324Z,20.50
2022-10-22T12:26:35.016Z,20.50
2022-10-22T12:28:40.831Z,20.50
2022-10-22T12:30:42.731Z,20.50
2022-10-22T12:32:44.976Z,20.40
2022-10-22T12:36:53.569Z,20.50
2022-10-22T12:38:59.148Z,20.50
2022-10-22T12:41:01.006Z,20.60
2022-10-22T12:43:11.462Z,20.60
2022-10-22T12:45:13.265Z,20.70
2022-10-22T12:47:18.695Z,20.80
2022-10-22T12:49:23.565Z,20.80
2022-10-22T12:51:25.718Z,20.80
2022-10-22T12:53:31.597Z,20.80
2022-10-22T12:55:34.329Z,20.80
2022-10-22T12:57:36.366Z,20.80
2022-10-22T12:59:40.499Z,20.90
2022-10-22T13:01:43.456Z,20.90
2022-10-22T13:03:52.349Z,20.90
2022-10-22T13:05:57.436Z,20.90
2022-10-22T13:08:23.059Z,21.00
2022-10-22T13:10:30.822Z,21.00
2022-10-22T13:12:37.087Z,21.10
2022-10-22T13:14:38.866Z,21.20
2022-10-22T13:16:40.626Z,21.30
2022-10-22T13:18:43.814Z,21.40
2022-10-22T13:20:51.997Z,21.50
2022-10-22T13:23:04.480Z,21.60
2022-10-22T13:25:20.448Z,21.70
2022-10-22T13:27:23.774Z,21.80
2022-10-22T13:29:25.589Z,21.80
2022-10-22T13:31:32.131Z,21.90
2022-10-22T13:33:37.104Z,21.90
2022-10-22T13:35:39.380Z,21.90
2022-10-22T13:37:41.412Z,21.80
2022-10-22T13:39:43.342Z,21.80
2022-10-22T13:41:45.284Z,21.80
2022-10-22T13:43:47.092Z,21.70
2022-10-22T13:45:54.132Z,21.80
2022-10-22T13:47:57.162Z,21.80
2022-10-22T13:50:01.922Z,21.80
2022-10-22T13:52:04.041Z,21.90
2022-10-22T13:54:13.798Z,21.90
2022-10-22T13:56:17.415Z,22.00
2022-10-22T13:58:21.803Z,22.00
2022-10-22T14:00:24.220Z,22.10
2022-10-22T14:02:26.896Z,22.10
2022-10-22T14:04:28.668Z,22.10
2022-10-22T14:06:32.300Z,22.10
2022-10-22T14:08:34.563Z,22.00
2022-10-22T14:10:36.340Z,22.00
2022-10-22T14:12:38.074Z,22.00
2022-10-22T14:14:40.728Z,22.00
2022-10-22T14:16:42.576Z,22.00
2022-10-22T14:18:44.793Z,22.00
2022-10-22T14:20:46.716Z,22.00
2022-10-22T14:22:49.969Z,22.00
2022-10-22T14:24:52.312Z,22.00
2022-10-22T14:26:54.315Z,22.00
2022-10-22T14:29:12.361Z,22.00
2022-10-22T14:31:14.417Z,22.00
2022-10-22T14:33:28.909Z,22.00
2022-10-22T14:35:41.720Z,22.10
2022-10-22T14:37:44.163Z,22.00
2022-10-22T14:39:51.752Z,21.90
2022-10-22T14:41:53.737Z,21.80
2022-10-22T14:43:55.941Z,21.80
2022-10-22T14:46:00.272Z,21.70
2022-10-22T14:48:04.742Z,21.60
2022-10-22T14:50:09.636Z,21.60
2022-10-22T14:52:14.202Z,21.50
2022-10-22T14:54:18.290Z,21.50
2022-10-22T14:56:24.401Z,21.50
2022-10-22T14:58:27.691Z,21.50
2022-10-22T15:00:30.799Z,21.50
2022-10-22T15:02:32.596Z,21.40
2022-10-22T15:04:34.244Z,21.40
2022-10-22T15:06:36.092Z,21.30
2022-10-22T15:08:38.973Z,21.30
2022-10-22T15:10:41.425Z,21.20
2022-10-22T15:12:43.106Z,21.20
2022-10-22T15:14:44.782Z,21.20
2022-10-22T15:16:46.487Z,21.10
2022-10-22T15:18:48.127Z,21.10
2022-10-22T15:20:57.025Z,21.00
2022-10-22T15:22:58.672Z,21.00
2022-10-22T15:25:01.245Z,20.90
2022-10-22T15:27:03.501Z,20.90
2022-10-22T15:29:05.589Z,20.90
2022-10-22T15:31:07.865Z,20.80
2022-10-22T15:33:10.770Z,20.80
2022-10-22T15:35:12.645Z,20.70
2022-10-22T15:37:15.327Z,20.70
2022-10-22T15:39:17.326Z,20.70
2022-10-22T15:41:19.020Z,20.70
2022-10-22T15:43:20.745Z,20.60
2022-10-22T15:45:24.029Z,20.60
2022-10-22T15:47:29.275Z,20.50
2022-10-22T15:49:31.025Z,20.50
2022-10-22T15:51:32.740Z,20.50
2022-10-22T15:53:34.835Z,20.40
2022-10-22T15:55:36.479Z,20.40
2022-10-22T15:57:39.279Z,20.40
2022-10-22T15:59:41.314Z,20.30
2022-10-22T16:01:43.890Z,20.30
2022-10-22T16:03:45.677Z,20.30
2022-10-22T16:05:54.385Z,20.30
2022-10-22T16:07:56.999Z,20.20
2022-10-22T16:10:00.136Z,20.20
2022-10-22T16:12:01.804Z,20.20
2022-10-22T16:14:04.377Z,20.10
2022-10-22T16:16:07.961Z,20.10
2022-10-22T16:18:09.597Z,20.10
2022-10-22T16:20:14.272Z,20.10
2022-10-22T16:22:16.005Z,20.00
2022-10-22T16:24:20.830Z,20.00
2022-10-22T16:26:24.726Z,20.00
2022-10-22T16:28:26.449Z,20.00
2022-10-22T16:30:28.329Z,19.90
2022-10-22T16:32:31.150Z,19.90
2022-10-22T16:34:32.841Z,19.90
2022-10-22T16:36:36.128Z,19.90
2022-10-22T16:38:38.271Z,19.80
2022-10-22T16:40:45.368Z,19.80
2022-10-22T16:42:47.220Z,19.80
2022-10-22T16:44:51.293Z,19.70
2022-10-22T16:46:54.486Z,19.70
2022-10-22T16:48:56.309Z,19.80
2022-10-22T16:50:58.308Z,19.70
2022-10-22T16:52:59.934Z,19.80
2022-10-22T16:55:01.784Z,19.80
2022-10-22T16:57:03.463Z,19.80
2022-10-22T16:59:06.055Z,19.70
2022-10-22T17:01:09.132Z,19.80
2022-10-22T17:03:12.747Z,19.80
2022-10-22T17:05:14.481Z,19.80
2022-10-22T17:07:16.790Z,19.80
2022-10-22T17:09:18.841Z,19.70
2022-10-22T17:11:25.671Z,19.80
2022-10-22T17:13:27.324Z,19.70
2022-10-22T17:15:29.003Z,19.70
2022-10-22T17:17:31.179Z,19.70
2022-10-22T17:19:34.127Z,19.70
2022-10-22T17:21:35.853Z,19.60
2022-10-22T17:23:39.709Z,19.60
2022-10-22T17:25:43.751Z,19.60
2022-10-22T17:27:45.702Z,19.60
2022-10-22T17:29:47.384Z,19.60
2022-10-22T17:31:50.082Z,19.50
2022-10-22T17:33:56.577Z,19.50
2022-10-22T17:35:58.761Z,19.50
2022-10-22T17:38:00.552Z,19.40
2022-10-22T17:40:03.225Z,19.40
2022-10-22T17:42:05.034Z,19.40
2022-10-22T17:44:12.117Z,19.30
2022-10-22T17:46:21.957Z,19.30
2022-10-22T17:48:23.604Z,19.30
2022-10-22T17:50:27.242Z,19.30
2022-10-22T17:52:31.550Z,19.20
2022-10-22T17:54:33.667Z,19.20
2022-10-22T17:56:35.400Z,19.20
2022-10-22T17:58:40.083Z,19.20
2022-10-22T18:00:41.788Z,19.20
2022-10-22T18:02:46.885Z,19.10
2022-10-22T18:04:52.179Z,19.10
2022-10-22T18:06:53.903Z,19.10
2022-10-22T18:08:55.873Z,19.10
2022-10-22T18:10:57.634Z,19.10
2022-10-22T18:12:59.406Z,19.00
2022-10-22T18:15:04.310Z,19.00
2022-10-22T18:17:06.205Z,19.00
2022-10-22T18:19:15.205Z,19.00
2022-10-22T18:21:19.938Z,19.00
2022-10-22T18:23:24.140Z,18.90
2022-10-22T18:25:25.953Z,18.90
2022-10-22T18:27:29.780Z,18.90
2022-10-22T18:29:31.508Z,18.90
2022-10-22T18:31:33.545Z,18.90
2022-10-22T18:33:36.713Z,18.90
2022-10-22T18:35:43.873Z,18.90
2022-10-22T18:37:45.559Z,18.80
2022-10-22T18:39:47.182Z,18.80
2022-10-22T18:41:48.882Z,18.70
2022-10-22T18:43:57.279Z,18.70
2022-10-22T18:45:58.904Z,18.70
2022-10-22T18:48:05.116Z,18.60
2022-10-22T18:50:07.480Z,18.60
2022-10-22T18:52:13.080Z,18.60
2022-10-22T18:54:29.645Z,18.50
2022-10-22T18:56:32.103Z,18.50
2022-10-22T18:58:42.413Z,18.50
2022-10-22T19:00:44.197Z,18.50
2022-10-22T19:02:46.380Z,18.50
2022-10-22T19:04:48.170Z,18.50
2022-10-22T19:06:53.934Z,18.50
2022-10-22T19:08:56.556Z,18.50
2022-10-22T19:11:00.834Z,18.50
2022-10-22T19:13:04.641Z,18.50
2022-10-22T19:15:06.804Z,18.50
2022-10-22T19:17:11.355Z,18.50
2022-10-22T19:19:16.429Z,18.50
2022-10-22T19:21:18.901Z,18.50
2022-10-22T19:23:20.923Z,18.40
2022-10-22T19:25:23.565Z,18.40
2022-10-22T19:27:25.239Z,18.40
2022-10-22T19:29:27.008Z,18.40
2022-10-22T19:31:31.019Z,18.40
2022-10-22T19:33:36.440Z,18.40
2022-10-22T19:35:39.136Z,18.40
2022-10-22T19:37:42.982Z,18.30
2022-10-22T19:39:51.846Z,18.30
2022-10-22T19:41:53.483Z,18.30
2022-10-22T19:43:56.423Z,18.30
2022-10-22T19:45:58.119Z,18.30
2022-10-22T19:48:02.114Z,18.30
2022-10-22T19:50:04.172Z,18.20
2022-10-22T19:52:05.818Z,18.20
2022-10-22T19:54:14.213Z,18.20
2022-10-22T19:56:20.507Z,18.20
2022-10-22T19:58:22.243Z,18.20
2022-10-22T20:00:24.018Z,18.10
2022-10-22T20:02:28.704Z,18.10
2022-10-22T20:04:33.692Z,18.10
2022-10-22T20:06:35.410Z,18.10
2022-10-22T20:08:38.204Z,18.10
2022-10-22T20:10:40.090Z,18.00
2022-10-22T20:12:41.761Z,18.10
2022-10-22T20:14:43.399Z,18.00
2022-10-22T20:16:45.267Z,18.00
2022-10-22T20:18:47.421Z,18.00
2022-10-22T20:20:49.419Z,18.00
2022-10-22T20:22:51.166Z,17.90
2022-10-22T20:24:52.888Z,17.90
2022-10-22T20:26:54.624Z,17.90
2022-10-22T20:29:00.184Z,17.90
2022-10-22T20:31:01.870Z,17.90
2022-10-22T20:33:03.638Z,17.90
2022-10-22T20:35:06.554Z,17.90
2022-10-22T20:37:08.310Z,17.80
2022-10-22T20:39:14.218Z,17.80
2022-10-22T20:41:21.807Z,17.80
2022-10-22T20:43:23.441Z,17.80
2022-10-22T20:45:25.261Z,17.70
2022-10-22T20:47:34.265Z,17.70
2022-10-22T20:49:46.370Z,17.70
2022-10-22T20:51:48.041Z,17.70
2022-10-22T20:53:51.102Z,17.70
2022-10-22T20:55:59.258Z,17.60
2022-10-22T20:58:00.960Z,17.70
2022-10-22T21:00:08.181Z,17.70
2022-10-22T21:02:11.201Z,17.60
2022-10-22T21:04:13.388Z,17.60
2022-10-22T21:06:15.224Z,17.70
2022-10-22T21:08:17.518Z,17.60
2022-10-22T21:10:21.724Z,17.60
2022-10-22T21:12:25.776Z,17.60
2022-10-22T21:14:27.418Z,17.60
2022-10-22T21:16:30.715Z,17.60
2022-10-22T21:18:35.124Z,17.60
2022-10-22T21:20:38.976Z,17.60
2022-10-22T21:22:41.043Z,17.60
2022-10-22T21:24:44.898Z,17.60
2022-10-22T21:26:46.560Z,17.50
2022-10-22T21:28:48.582Z,17.40
2022-10-22T21:30:53.212Z,17.50
2022-10-22T21:32:56.718Z,17.50
2022-10-22T21:34:58.474Z,17.50
2022-10-22T21:37:02.658Z,17.50
2022-10-22T21:39:07.056Z,17.50
2022-10-22T21:41:11.345Z,17.40
2022-10-22T21:43:16.386Z,17.40
2022-10-22T21:45:22.073Z,17.40
2022-10-22T21:47:24.305Z,17.30
2022-10-22T21:49:26.004Z,17.40
2022-10-22T21:51:28.854Z,17.30
2022-10-22T21:53:30.544Z,17.30
2022-10-22T21:55:35.083Z,17.30
2022-10-22T21:57:36.766Z,17.30
2022-10-22T21:59:38.508Z,17.30
2022-10-22T22:01:42.622Z,17.30
2022-10-22T22:03:47.851Z,17.20
2022-10-22T22:05:52.238Z,17.30
2022-10-22T22:07:54.079Z,17.20
2022-10-22T22:09:55.712Z,17.20
2022-10-22T22:11:57.360Z,17.20
2022-10-22T22:13:59.441Z,17.10
2022-10-22T22:16:02.634Z,17.10
2022-10-22T22:18:04.401Z,17.10
2022-10-22T22:20:10.021Z,17.10
2022-10-22T22:22:11.803Z,17.10
2022-10-22T22:24:15.685Z,17.10
2022-10-22T22:26:25.233Z,17.10
2022-10-22T22:28:30.958Z,17.00
2022-10-22T22:30:32.603Z,17.00
2022-10-22T22:32:34.318Z,17.00
2022-10-22T22:34:35.998Z,17.00
2022-10-22T22:36:40.099Z,17.00
2022-10-22T22:38:43.443Z,17.00
2022-10-22T22:40:47.864Z,17.00
2022-10-22T22:42:49.687Z,16.90
2022-10-22T22:44:51.422Z,16.90
2022-10-22T22:46:55.359Z,16.90
2022-10-22T22:48:57.260Z,16.90
2022-10-22T22:51:04.942Z,16.90
2022-10-22T22:53:08.578Z,16.80
2022-10-22T22:55:10.261Z,16.80
2022-10-22T22:57:11.896Z,16.80
2022-10-22T22:59:13.553Z,16.80
2022-10-22T23:01:27.180Z,16.80
2022-10-22T23:03:28.872Z,16.80
2022-10-22T23:05:30.538Z,16.80
2022-10-22T23:07:32.247Z,16.80
2022-10-22T23:09:41.223Z,16.80
2022-10-22T23:11:50.277Z,16.70
2022-10-22T23:14:00.842Z,16.80
2022-10-22T23:16:13.985Z,16.80
2022-10-22T23:18:17.738Z,16.70
2022-10-22T23:20:19.367Z,16.60
2022-10-22T23:22:25.581Z,16.70
2022-10-22T23:24:29.329Z,16.70
2022-10-22T23:26:34.139Z,16.60
2022-10-22T23:28:35.798Z,16.60
2022-10-22T23:30:45.215Z,16.60
2022-10-22T23:32:46.835Z,16.60
2022-10-22T23:34:48.479Z,16.60
2022-10-22T23:36:51.660Z,16.60
2022-10-22T23:38:54.213Z,16.60
2022-10-22T23:40:56.932Z,16.50
2022-10-22T23:42:58.838Z,16.50
2022-10-22T23:45:00.465Z,16.50
2022-10-22T23:47:02.128Z,16.50
2022-10-22T23:49:09.952Z,16.50
2022-10-22T23:51:15.676Z,16.50
2022-10-22T23:53:18.342Z,16.50
2022-10-22T23:55:20.103Z,16.50
2022-10-22T23:57:21.709Z,16.40
2022-10-22T23:59:23.344Z,16.40
